Time;durP1;ratioP1;P1;durP2;ratioP2;P2;SDS_P1;SDS_P2;PMS_P1;PMS_P2;Temp;Humidity;BMP_temperature;BMP_pressure;BME280_temperature;BME280_humidity;BME280_pressure;Samples;Min_cycle;Max_cycle;Signal;HPM_P1;HPM_P2
2023/12/08 00:02:44;;;;;;;16.67;11.43;;;2.40;86.10;;;;;;6200870;23;19934;-82
2023/12/08 00:05:14;;;;;;;18.70;12.13;;;2.40;86.40;;;;;;6201584;23;20107;-82
2023/12/08 00:07:56;;;;;;;15.63;10.77;;;2.40;86.40;;;;;;6201082;23;20023;-82
2023/12/08 00:10:31;;;;;;;14.77;10.63;;;2.40;86.20;;;;;;6226020;23;20016;-82
2023/12/08 00:12:56;;;;;;;;;;;2.30;86.00;;;;;;6225697;23;20089;-82
2023/12/08 00:15:28;;;;;;;17.37;11.13;;;2.40;86.00;;;;;;6228169;23;19919;-82
2023/12/08 00:18:19;;;;;;;18.03;11.03;;;2.30;86.00;;;;;;6226647;23;20016;-82
2023/12/08 00:21:41;;;;;;;16.93;10.70;;;2.40;85.90;;;;;;6253427;23;20016;-82
2023/12/08 00:24:30;;;;;;;15.00;10.67;;;2.30;85.70;;;;;;6071192;23;20023;-81
2023/12/08 00:26:56;;;;;;;17.30;11.30;;;2.30;85.90;;;;;;6207481;23;20504;-81
2023/12/08 00:29:22;;;;;;;18.30;11.43;;;2.30;86.00;;;;;;6232839;23;20023;-81
2023/12/08 00:31:51;;;;;;;16.03;11.27;;;2.30;85.90;;;;;;6232243;23;20023;-82
2023/12/08 00:34:19;;;;;;;16.80;10.87;;;2.30;85.90;;;;;;6229377;23;20070;-81
2023/12/08 00:36:45;;;;;;;15.33;10.50;;;2.40;86.00;;;;;;6229750;23;20016;-82
2023/12/08 00:39:11;;;;;;;14.33;10.50;;;2.30;86.00;;;;;;6232041;23;20012;-82
2023/12/08 00:41:46;;;;;;;17.33;12.17;;;2.30;85.90;;;;;;6236565;23;20013;-81
2023/12/08 00:44:14;;;;;;;16.20;10.60;;;2.40;86.00;;;;;;6242700;23;20110;-81
2023/12/08 00:46:40;;;;;;;15.13;11.33;;;2.40;86.00;;;;;;6217333;23;20016;-81
2023/12/08 00:49:06;;;;;;;16.27;10.60;;;2.40;86.30;;;;;;6239279;23;20055;-81
2023/12/08 00:51:32;;;;;;;16.07;10.90;;;2.40;85.80;;;;;;6232957;23;20016;-82
2023/12/08 00:53:57;;;;;;;16.60;11.10;;;2.40;85.80;;;;;;6232529;23;20341;-82
2023/12/08 00:56:32;;;;;;;;;;;2.40;85.70;;;;;;6233323;23;20012;-82
2023/12/08 00:58:57;;;;;;;16.67;10.60;;;2.40;85.40;;;;;;6206180;23;19943;-82
2023/12/08 01:01:26;;;;;;;15.10;10.47;;;2.40;85.80;;;;;;6230745;23;20271;-82
2023/12/08 01:03:55;;;;;;;17.53;11.30;;;2.40;85.80;;;;;;6230279;23;20016;-82
2023/12/08 01:06:26;;;;;;;15.37;10.77;;;2.40;85.80;;;;;;6229884;23;20162;-82
2023/12/08 01:08:55;;;;;;;19.02;11.60;;;2.40;85.70;;;;;;6230735;23;20441;-82
2023/12/08 01:11:21;;;;;;;17.27;11.17;;;2.50;85.80;;;;;;6204813;23;20012;-82
2023/12/08 01:13:55;;;;;;;15.83;10.80;;;2.50;85.80;;;;;;6228957;23;20023;-82
2023/12/08 01:16:21;;;;;;;16.03;11.57;;;2.40;85.70;;;;;;6229224;23;20008;-82
2023/12/08 01:18:50;;;;;;;15.63;10.93;;;2.50;85.80;;;;;;6229677;23;20085;-81
2023/12/08 01:21:16;;;;;;;16.97;11.10;;;2.50;85.60;;;;;;6228688;23;20019;-82
2023/12/08 01:23:45;;;;;;;18.07;11.37;;;2.50;85.60;;;;;;6223952;23;20072;-82
2023/12/08 01:26:11;;;;;;;16.13;11.03;;;2.50;85.50;;;;;;6198650;23;20385;-82
2023/12/08 01:28:42;;;;;;;16.23;10.47;;;2.50;85.50;;;;;;6198474;23;20012;-82
2023/12/08 01:31:07;;;;;;;15.53;10.87;;;2.50;85.30;;;;;;6223027;23;20043;-82
2023/12/08 01:33:43;;;;;;;14.80;10.33;;;2.50;85.30;;;;;;6222259;23;20012;-82
2023/12/08 01:36:13;;;;;;;17.00;11.40;;;2.50;85.30;;;;;;6223797;23;20020;-82
2023/12/08 01:38:39;;;;;;;17.97;11.83;;;2.50;85.30;;;;;;6198436;23;20018;-82
2023/12/08 01:41:04;;;;;;;15.60;10.87;;;2.50;85.20;;;;;;6199055;23;20091;-82
2023/12/08 01:43:30;;;;;;;17.10;11.10;;;2.50;85.10;;;;;;6222906;23;20043;-82
2023/12/08 01:45:58;;;;;;;20.77;12.03;;;2.60;85.10;;;;;;6224600;23;20009;-82
2023/12/08 01:48:28;;;;;;;15.57;10.87;;;2.60;85.00;;;;;;6198122;23;20008;-82
2023/12/08 01:50:55;;;;;;;17.47;11.93;;;2.50;84.90;;;;;;6198533;23;20012;-82
2023/12/08 01:53:24;;;;;;;18.53;11.63;;;2.50;84.90;;;;;;6249618;23;20019;-82
2023/12/08 01:55:50;;;;;;;16.77;11.63;;;2.60;84.90;;;;;;6198828;23;20012;-82
2023/12/08 01:58:17;;;;;;;18.27;11.37;;;2.60;84.80;;;;;;6194219;23;20169;-82
2023/12/08 02:00:52;;;;;;;18.13;11.50;;;2.60;84.70;;;;;;6198832;23;20008;-82
2023/12/08 02:03:18;;;;;;;19.20;10.90;;;2.60;84.70;;;;;;6198572;23;20042;-82
2023/12/08 02:05:53;;;;;;;16.37;11.53;;;2.60;84.70;;;;;;6198917;23;20016;-82
2023/12/08 02:08:19;;;;;;;18.77;11.80;;;2.60;84.60;;;;;;6198452;23;20017;-82
2023/12/08 02:10:46;;;;;;;16.00;11.23;;;2.60;84.60;;;;;;6199010;23;20119;-82
2023/12/08 02:13:14;;;;;;;19.33;11.90;;;2.60;84.70;;;;;;6198448;23;20055;-82
2023/12/08 02:15:40;;;;;;;16.57;11.73;;;2.60;84.60;;;;;;6195018;23;20020;-81
2023/12/08 02:18:07;;;;;;;15.87;11.23;;;2.60;84.50;;;;;;6194555;23;20430;-81
2023/12/08 02:20:33;;;;;;;16.47;11.63;;;2.60;84.50;;;;;;6223681;23;20013;-82
2023/12/08 02:23:03;;;;;;;17.87;11.33;;;2.60;84.50;;;;;;6198162;23;20027;-82
2023/12/08 02:25:31;;;;;;;17.43;11.63;;;2.60;84.50;;;;;;6198399;23;20020;-82
2023/12/08 02:28:03;;;;;;;18.35;12.52;;;2.60;84.40;;;;;;6223845;23;20048;-82
2023/12/08 02:30:30;;;;;;;18.40;12.30;;;2.60;84.40;;;;;;6198516;23;20074;-81
2023/12/08 02:33:31;;;;;;;17.83;11.27;;;2.60;84.40;;;;;;6220790;23;20016;-82
2023/12/08 02:36:00;;;;;;;16.00;11.80;;;2.60;84.30;;;;;;6198340;23;20017;-82
2023/12/08 02:38:26;;;;;;;16.07;11.13;;;2.60;84.40;;;;;;6198904;23;20019;-82
2023/12/08 02:40:53;;;;;;;16.97;11.83;;;2.60;84.40;;;;;;6197738;23;20477;-82
2023/12/08 02:43:22;;;;;;;18.53;12.20;;;2.60;84.40;;;;;;6224058;23;20044;-82
2023/12/08 02:45:51;;;;;;;17.77;12.17;;;2.60;84.40;;;;;;6199303;23;20012;-82
2023/12/08 02:48:17;;;;;;;16.73;11.63;;;2.60;84.40;;;;;;6198297;23;20453;-82
2023/12/08 02:50:43;;;;;;;17.57;12.77;;;2.60;84.30;;;;;;6198227;23;20016;-81
2023/12/08 02:53:08;;;;;;;17.13;12.00;;;2.60;84.40;;;;;;6224087;23;20008;-81
2023/12/08 02:55:38;;;;;;;18.97;13.07;;;2.60;84.40;;;;;;6198761;23;20008;-81
2023/12/08 02:58:04;;;;;;;19.80;12.40;;;2.60;84.50;;;;;;6199192;23;20020;-82
2023/12/08 03:00:30;;;;;;;18.60;12.67;;;2.60;84.60;;;;;;6198164;23;20016;-81
2023/12/08 03:02:55;;;;;;;20.93;13.57;;;2.60;84.60;;;;;;6203683;23;20013;-80
2023/12/08 03:05:28;;;;;;;20.53;12.90;;;2.60;84.60;;;;;;6235084;23;20013;-81
2023/12/08 03:07:54;;;;;;;19.00;13.07;;;2.50;84.70;;;;;;6211110;23;20035;-80
2023/12/08 03:10:20;;;;;;;21.43;13.57;;;2.50;84.80;;;;;;6225289;23;20009;-81
2023/12/08 03:12:46;;;;;;;19.87;13.03;;;2.50;84.90;;;;;;6223106;23;20418;-81
2023/12/08 03:15:14;;;;;;;23.73;15.10;;;2.50;85.10;;;;;;6222234;23;20009;-81
2023/12/08 03:17:40;;;;;;;21.40;13.73;;;2.40;85.10;;;;;;6197203;23;20523;-81
2023/12/08 03:20:15;;;;;;;18.73;13.40;;;2.40;85.30;;;;;;6197917;23;20087;-81
2023/12/08 03:22:41;;;;;;;23.73;14.17;;;2.40;85.50;;;;;;6202346;23;20016;-81
2023/12/08 03:25:07;;;;;;;22.23;14.63;;;2.30;85.60;;;;;;6202909;23;20103;-81
2023/12/08 03:27:33;;;;;;;22.07;14.33;;;2.30;85.80;;;;;;6227528;23;20058;-81
2023/12/08 03:29:59;;;;;;;21.30;13.37;;;2.30;86.00;;;;;;6227138;23;20475;-81
2023/12/08 03:32:35;;;;;;;23.50;16.47;;;2.20;86.10;;;;;;6202426;23;20012;-81
2023/12/08 03:35:04;;;;;;;21.97;13.83;;;2.20;86.30;;;;;;6203418;23;20020;-81
2023/12/08 03:37:30;;;;;;;23.13;14.80;;;2.20;86.50;;;;;;6202030;23;20441;-81
2023/12/08 03:39:56;;;;;;;25.33;14.83;;;2.10;86.60;;;;;;6225465;23;20016;-81
2023/12/08 03:42:22;;;;;;;24.17;14.67;;;2.10;86.90;;;;;;6202071;23;20016;-81
2023/12/08 03:44:51;;;;;;;26.87;15.73;;;2.10;87.10;;;;;;6202889;23;20023;-81
2023/12/08 03:47:20;;;;;;;24.33;14.93;;;2.00;87.20;;;;;;6202199;23;20012;-81
2023/12/08 03:49:46;;;;;;;23.17;14.40;;;2.00;87.40;;;;;;6227188;23;20453;-81
2023/12/08 03:52:21;;;;;;;22.97;15.33;;;2.00;87.80;;;;;;6203844;23;20016;-81
2023/12/08 03:54:46;;;;;;;25.30;15.40;;;2.00;88.00;;;;;;6204651;23;20013;-81
2023/12/08 03:57:12;;;;;;;26.10;15.57;;;2.00;88.10;;;;;;6204855;23;20042;-82
2023/12/08 03:59:40;;;;;;;24.53;15.33;;;1.90;88.10;;;;;;6204623;23;20047;-82
2023/12/08 04:02:06;;;;;;;25.57;15.37;;;1.90;88.30;;;;;;6204653;23;20012;-82
2023/12/08 04:04:32;;;;;;;26.33;15.50;;;1.90;88.50;;;;;;6230322;23;20340;-82
2023/12/08 04:07:00;;;;;;;25.90;16.33;;;1.90;88.70;;;;;;6204936;23;20020;-82
2023/12/08 04:09:29;;;;;;;24.67;16.03;;;1.90;88.80;;;;;;6204464;23;20338;-82
2023/12/08 04:11:58;;;;;;;26.30;16.80;;;1.80;89.00;;;;;;6230727;23;20020;-82
2023/12/08 04:14:33;;;;;;;25.27;15.37;;;1.80;89.10;;;;;;6205161;23;20012;-82
2023/12/08 04:16:59;;;;;;;28.97;17.43;;;1.80;89.20;;;;;;6207799;23;20051;-82
2023/12/08 04:19:28;;;;;;;27.33;16.87;;;1.80;89.20;;;;;;6205934;23;20012;-82
2023/12/08 04:21:57;;;;;;;27.43;16.00;;;1.80;89.50;;;;;;6204763;23;20013;-82
2023/12/08 04:24:23;;;;;;;28.33;16.47;;;1.80;89.60;;;;;;6204836;23;20020;-82
2023/12/08 04:26:51;;;;;;;27.53;16.27;;;1.80;89.70;;;;;;6230491;23;20012;-82
2023/12/08 04:29:17;;;;;;;27.93;16.67;;;1.70;89.80;;;;;;6230307;23;20012;-82
2023/12/08 04:31:43;;;;;;;28.93;17.17;;;1.70;89.90;;;;;;6230253;23;20077;-82
2023/12/08 04:34:09;;;;;;;30.87;17.37;;;1.70;90.00;;;;;;6205096;23;20047;-83
2023/12/08 04:36:38;;;;;;;30.37;17.30;;;1.70;90.00;;;;;;6205059;23;20015;-82
2023/12/08 04:39:04;;;;;;;28.67;17.10;;;1.70;90.10;;;;;;6205325;23;20072;-82
2023/12/08 04:41:30;;;;;;;33.33;18.73;;;1.60;90.10;;;;;;6230906;23;20457;-82
2023/12/08 04:43:56;;;;;;;30.83;17.97;;;1.60;90.10;;;;;;6230012;23;20008;-82
2023/12/08 04:46:21;;;;;;;28.47;17.80;;;1.60;90.20;;;;;;6230294;23;20081;-82
2023/12/08 04:48:50;;;;;;;31.93;18.67;;;1.60;90.30;;;;;;6204611;23;20027;-82
2023/12/08 04:51:16;;;;;;;26.90;17.33;;;1.60;90.30;;;;;;6204217;23;20327;-82
2023/12/08 04:53:42;;;;;;;30.60;18.50;;;1.60;90.30;;;;;;6229931;23;20038;-82
2023/12/08 04:56:08;;;;;;;31.10;17.43;;;1.60;90.40;;;;;;6229594;23;20083;-82
2023/12/08 04:58:34;;;;;;;33.30;18.83;;;1.60;90.40;;;;;;6206171;23;20015;-82
2023/12/08 05:01:00;;;;;;;28.53;18.13;;;1.60;90.40;;;;;;6205787;23;20126;-82
2023/12/08 05:03:25;;;;;;;31.10;18.07;;;1.60;90.40;;;;;;6204621;23;20012;-82
2023/12/08 05:05:51;;;;;;;28.23;17.37;;;1.50;90.50;;;;;;6205973;23;20020;-83
2023/12/08 05:08:17;;;;;;;32.60;18.40;;;1.60;90.60;;;;;;6204441;23;20326;-82
2023/12/08 05:10:43;;;;;;;32.07;18.33;;;1.50;90.60;;;;;;6203995;23;20047;-82
2023/12/08 05:13:09;;;;;;;34.20;19.07;;;1.50;90.60;;;;;;6229749;23;20023;-82
2023/12/08 05:15:35;;;;;;;29.87;18.30;;;1.50;90.60;;;;;;6231140;23;20016;-82
2023/12/08 05:18:06;;;;;;;30.30;18.23;;;1.50;90.60;;;;;;6205704;23;20018;-82
2023/12/08 05:20:32;;;;;;;30.30;18.20;;;1.50;90.70;;;;;;6202258;23;20023;-83
2023/12/08 05:22:58;;;;;;;27.07;16.80;;;1.50;90.70;;;;;;6205836;23;20016;-82
2023/12/08 05:25:23;;;;;;;29.00;17.40;;;1.60;90.80;;;;;;6205147;23;20027;-81
2023/12/08 05:27:49;;;;;;;29.80;19.07;;;1.50;90.70;;;;;;6236306;23;20019;-82
2023/12/08 05:30:18;;;;;;;29.43;18.00;;;1.50;90.70;;;;;;6231517;23;20012;-83
2023/12/08 05:32:43;;;;;;;29.90;18.03;;;1.50;90.80;;;;;;6229637;23;20012;-83
2023/12/08 05:35:09;;;;;;;30.60;17.80;;;1.50;90.80;;;;;;6204605;23;20019;-83
2023/12/08 05:37:35;;;;;;;30.33;17.97;;;1.50;90.80;;;;;;6205297;23;20012;-83
2023/12/08 05:40:02;;;;;;;30.77;17.97;;;1.60;90.80;;;;;;6204694;23;20012;-83
2023/12/08 05:42:28;;;;;;;30.87;18.67;;;1.50;90.80;;;;;;6204149;23;20008;-83
2023/12/08 05:44:54;;;;;;;31.63;17.93;;;1.50;90.80;;;;;;6230204;23;20016;-83
2023/12/08 05:47:20;;;;;;;29.73;18.67;;;1.60;90.90;;;;;;6204586;23;20031;-83
2023/12/08 05:49:45;;;;;;;30.20;17.47;;;1.50;90.90;;;;;;6229290;23;20026;-83
2023/12/08 05:52:11;;;;;;;32.17;18.77;;;1.50;90.90;;;;;;6203832;23;20022;-83
2023/12/08 05:54:45;;;;;;;31.97;18.20;;;1.50;90.90;;;;;;6204150;23;20019;-83
2023/12/08 05:57:14;;;;;;;30.07;17.63;;;1.50;91.00;;;;;;6203955;23;20441;-83
2023/12/08 05:59:40;;;;;;;33.27;17.80;;;1.50;91.00;;;;;;6203664;23;20070;-83
2023/12/08 06:02:09;;;;;;;29.83;17.77;;;1.50;91.00;;;;;;6204185;23;20372;-83
2023/12/08 06:04:41;;;;;;;33.53;19.63;;;1.50;91.00;;;;;;6203613;23;20016;-83
2023/12/08 06:07:07;;;;;;;29.57;17.10;;;1.50;91.00;;;;;;6201617;23;20190;-83
2023/12/08 06:09:41;;;;;;;33.60;18.53;;;1.50;91.00;;;;;;6202287;23;20020;-83
2023/12/08 06:12:19;;;;;;;32.70;19.13;;;1.50;91.00;;;;;;6228704;23;20044;-83
2023/12/08 06:14:44;;;;;;;;;;;1.50;91.00;;;;;;6230373;23;20105;-83
2023/12/08 06:17:19;;;;;;;29.43;16.53;;;1.50;91.00;;;;;;6203156;23;20321;-83
2023/12/08 06:22:48;;;;;;;31.43;18.03;;;1.50;91.00;;;;;;6225664;23;19911;-83
2023/12/08 06:25:19;;;;;;;36.53;19.47;;;1.50;91.00;;;;;;6202547;23;20074;-83
2023/12/08 06:28:07;;;;;;;31.57;18.57;;;1.50;91.10;;;;;;6203498;23;20016;-83
2023/12/08 06:30:35;;;;;;;32.13;17.57;;;2.10;91.30;;;;;;6227521;23;20012;-83
2023/12/08 06:33:04;;;;;;;29.97;18.23;;;1.50;91.10;;;;;;6226079;23;20104;-84
2023/12/08 06:35:31;;;;;;;32.33;18.70;;;1.50;91.10;;;;;;6202244;23;20015;-84
2023/12/08 06:38:05;;;;;;;32.10;18.43;;;1.50;91.10;;;;;;6201261;23;20146;-84
2023/12/08 06:40:31;;;;;;;33.17;19.47;;;1.60;91.10;;;;;;6226745;23;20012;-83
2023/12/08 06:43:03;;;;;;;35.33;20.30;;;1.50;91.30;;;;;;6225656;23;20464;-83
2023/12/08 06:45:53;;;;;;;32.33;18.53;;;1.50;91.10;;;;;;6227518;23;20070;-83
2023/12/08 06:48:18;;;;;;;34.33;19.33;;;1.50;91.10;;;;;;6226500;23;20349;-84
2023/12/08 06:50:44;;;;;;;36.27;18.90;;;1.50;91.30;;;;;;6200503;23;20024;-84
2023/12/08 06:53:16;;;;;;;35.37;19.70;;;1.60;91.20;;;;;;6225614;23;20092;-84
2023/12/08 06:55:42;;;;;;;34.37;18.87;;;1.50;91.20;;;;;;6200410;23;20008;-84
2023/12/08 06:58:08;;;;;;;34.13;19.80;;;1.50;91.20;;;;;;6224701;23;20310;-84
2023/12/08 07:00:40;;;;;;;33.87;19.43;;;1.50;91.20;;;;;;6196342;23;20019;-84
2023/12/08 07:03:09;;;;;;;34.20;19.63;;;1.50;91.30;;;;;;6225118;23;20016;-84
2023/12/08 07:05:35;;;;;;;37.40;20.43;;;1.50;91.30;;;;;;6223208;23;20016;-84
2023/12/08 07:08:00;;;;;;;36.03;21.10;;;1.50;91.30;;;;;;6198769;23;20018;-84
2023/12/08 07:10:29;;;;;;;32.70;18.70;;;1.50;91.30;;;;;;6202954;23;20027;-84
2023/12/08 07:13:04;;;;;;;35.67;20.83;;;1.50;91.30;;;;;;6203932;23;20078;-84
2023/12/08 07:15:30;;;;;;;34.60;19.80;;;1.60;91.40;;;;;;6225635;23;20020;-84
2023/12/08 07:17:55;;;;;;;33.83;19.23;;;1.60;91.40;;;;;;6202630;23;20444;-83
2023/12/08 07:20:30;;;;;;;39.23;21.10;;;2.00;91.50;;;;;;6205059;23;20044;-84
2023/12/08 07:22:56;;;;;;;35.63;20.17;;;1.60;91.50;;;;;;6225828;23;20050;-84
2023/12/08 07:25:31;;;;;;;37.70;21.63;;;1.60;91.40;;;;;;6226795;23;20012;-84
2023/12/08 07:28:06;;;;;;;30.23;19.07;;;1.60;91.50;;;;;;6199716;23;20095;-84
2023/12/08 07:30:32;;;;;;;32.93;19.00;;;1.60;91.50;;;;;;6224854;23;20097;-84
2023/12/08 07:33:08;;;;;;;33.10;19.00;;;1.60;91.50;;;;;;6203044;23;20027;-84
2023/12/08 07:36:06;;;;;;;36.83;21.97;;;1.60;91.50;;;;;;6200469;23;20008;-84
2023/12/08 07:38:32;;;;;;;34.80;19.07;;;1.60;91.50;;;;;;6215464;23;20012;-83
2023/12/08 07:41:07;;;;;;;34.50;20.30;;;1.60;91.50;;;;;;6230169;23;20096;-83
2023/12/08 07:43:38;;;;;;;34.47;19.90;;;1.70;91.50;;;;;;6235617;23;20012;-83
2023/12/08 07:46:05;;;;;;;37.37;20.67;;;1.70;91.50;;;;;;6211141;23;20047;-83
2023/12/08 07:48:36;;;;;;;31.10;20.10;;;1.70;91.50;;;;;;6173778;23;20009;-83
2023/12/08 07:51:02;;;;;;;32.17;18.80;;;1.70;91.50;;;;;;6198744;23;20008;-83
2023/12/08 07:53:27;;;;;;;30.17;19.30;;;1.70;91.50;;;;;;6198150;23;20058;-83
2023/12/08 07:55:53;;;;;;;34.00;20.17;;;1.70;91.50;;;;;;6197398;23;20098;-83
2023/12/08 07:58:19;;;;;;;33.63;19.90;;;1.70;91.50;;;;;;6221265;23;20005;-83
2023/12/08 08:00:44;;;;;;;35.33;20.27;;;1.70;91.50;;;;;;6194039;23;20400;-83
2023/12/08 08:03:10;;;;;;;34.77;19.97;;;1.70;91.50;;;;;;6221151;23;20019;-83
2023/12/08 08:05:35;;;;;;;32.20;19.53;;;1.70;91.50;;;;;;6222061;23;20020;-83
2023/12/08 08:08:02;;;;;;;35.00;19.60;;;1.70;91.50;;;;;;6195399;23;20016;-81
2023/12/08 08:10:28;;;;;;;31.60;18.70;;;1.80;91.50;;;;;;6220544;23;20107;-81
2023/12/08 08:12:54;;;;;;;30.53;18.97;;;1.80;91.50;;;;;;6224895;23;20047;-81
2023/12/08 08:15:19;;;;;;;31.77;18.73;;;1.80;91.50;;;;;;6222828;23;20496;-81
2023/12/08 08:17:45;;;;;;;31.53;17.80;;;1.80;91.50;;;;;;6221458;23;20105;-81
2023/12/08 08:20:10;;;;;;;32.93;19.77;;;1.80;91.50;;;;;;6221230;23;20064;-81
2023/12/08 08:22:36;;;;;;;34.93;20.07;;;1.80;91.50;;;;;;6221577;23;20055;-81
2023/12/08 08:25:02;;;;;;;32.13;18.07;;;1.80;91.50;;;;;;6197496;23;20050;-81
2023/12/08 08:27:28;;;;;;;35.20;20.87;;;1.80;91.50;;;;;;6221868;23;20071;-81
2023/12/08 08:29:54;;;;;;;32.20;19.23;;;1.80;91.50;;;;;;6197558;23;20023;-81
2023/12/08 08:32:20;;;;;;;33.33;18.00;;;1.80;91.50;;;;;;6223113;23;20064;-81
2023/12/08 08:34:46;;;;;;;33.17;19.13;;;1.80;91.50;;;;;;6222931;23;20046;-81
2023/12/08 08:37:12;;;;;;;30.17;18.63;;;1.80;91.50;;;;;;6196888;23;20026;-81
2023/12/08 08:39:37;;;;;;;33.50;19.10;;;1.80;91.50;;;;;;6200075;23;20016;-81
2023/12/08 08:42:03;;;;;;;34.67;19.97;;;1.80;91.50;;;;;;6201176;23;20466;-81
2023/12/08 08:44:29;;;;;;;32.70;18.80;;;1.80;91.50;;;;;;6200494;23;20322;-81
2023/12/08 08:46:54;;;;;;;31.73;18.57;;;1.80;91.50;;;;;;6219400;23;20016;-81
2023/12/08 08:49:20;;;;;;;33.20;19.43;;;1.80;91.50;;;;;;6223296;23;20354;-81
2023/12/08 08:51:46;;;;;;;31.40;18.20;;;1.80;91.50;;;;;;6219594;23;20058;-81
2023/12/08 08:54:12;;;;;;;31.07;18.13;;;1.80;91.50;;;;;;6219776;23;20068;-81
2023/12/08 08:56:38;;;;;;;30.00;18.83;;;1.80;91.50;;;;;;6222228;23;20044;-81
2023/12/08 08:59:03;;;;;;;30.43;17.77;;;1.80;91.50;;;;;;6222093;23;20066;-81
2023/12/08 09:01:29;;;;;;;37.80;18.53;;;1.80;91.50;;;;;;6197438;23;20015;-81
2023/12/08 09:03:55;;;;;;;33.60;18.87;;;1.80;91.50;;;;;;6196335;23;20012;-81
2023/12/08 09:06:20;;;;;;;30.63;19.60;;;1.80;91.50;;;;;;6222644;23;20012;-81
2023/12/08 09:08:47;;;;;;;34.57;19.73;;;1.80;91.50;;;;;;6222266;23;20008;-81
2023/12/08 09:11:12;;;;;;;33.90;19.63;;;1.80;91.50;;;;;;6198355;23;20035;-81
2023/12/08 09:13:38;;;;;;;32.93;18.70;;;1.90;91.60;;;;;;6200459;23;20444;-82
2023/12/08 09:16:04;;;;;;;32.60;18.30;;;2.10;91.70;;;;;;6199993;23;20069;-80
2023/12/08 09:18:30;;;;;;;34.10;19.33;;;1.80;91.60;;;;;;6199638;23;20016;-81
2023/12/08 09:20:56;;;;;;;36.07;20.23;;;1.90;91.60;;;;;;6223086;23;20012;-80
2023/12/08 09:23:21;;;;;;;35.53;20.63;;;1.90;91.60;;;;;;6222601;23;20075;-80
2023/12/08 09:25:47;;;;;;;36.17;20.97;;;1.90;91.60;;;;;;6222570;23;20020;-81
2023/12/08 09:28:13;;;;;;;38.23;21.43;;;1.90;91.60;;;;;;6222219;23;20043;-81
2023/12/08 09:30:40;;;;;;;36.10;21.43;;;1.90;91.70;;;;;;6222656;23;20020;-81
2023/12/08 09:33:07;;;;;;;36.33;19.57;;;1.90;91.70;;;;;;6223506;23;20027;-81
2023/12/08 09:35:32;;;;;;;38.93;21.00;;;1.90;91.70;;;;;;6223375;23;20016;-81
2023/12/08 09:37:58;;;;;;;36.90;20.83;;;1.90;91.70;;;;;;6223972;23;20043;-81
2023/12/08 09:40:27;;;;;;;35.73;20.77;;;1.90;91.90;;;;;;6197811;23;20044;-82
2023/12/08 09:42:57;;;;;;;36.23;20.87;;;1.90;91.70;;;;;;6221880;23;20139;-81
2023/12/08 09:45:23;;;;;;;36.37;22.03;;;2.00;91.80;;;;;;6248472;23;20020;-82
2023/12/08 09:47:53;;;;;;;38.30;20.87;;;1.90;91.70;;;;;;6221179;23;20012;-81
2023/12/08 09:50:19;;;;;;;37.33;21.20;;;2.00;91.80;;;;;;6219706;23;20008;-81
2023/12/08 09:52:45;;;;;;;34.73;20.03;;;2.00;91.80;;;;;;6250272;23;20019;-82
2023/12/08 09:55:12;;;;;;;36.27;20.67;;;1.90;91.80;;;;;;6250377;23;20091;-81
2023/12/08 09:57:42;;;;;;;37.23;21.30;;;2.00;91.80;;;;;;6200299;23;20035;-81
2023/12/08 10:00:13;;;;;;;37.67;21.47;;;2.00;91.80;;;;;;6230702;23;20070;-82
2023/12/08 10:02:39;;;;;;;45.33;23.70;;;2.00;91.80;;;;;;6205892;23;20614;-81
2023/12/08 10:05:06;;;;;;;40.17;22.37;;;2.00;91.80;;;;;;6199822;23;20020;-81
2023/12/08 10:07:33;;;;;;;40.90;22.47;;;2.00;91.80;;;;;;6196298;23;20099;-82
2023/12/08 10:10:02;;;;;;;41.33;22.40;;;2.00;91.80;;;;;;6195692;23;20016;-82
2023/12/08 10:12:28;;;;;;;39.77;22.40;;;2.00;91.80;;;;;;6221051;23;20071;-82
2023/12/08 10:14:56;;;;;;;41.80;22.50;;;2.00;91.80;;;;;;6220818;23;20012;-82
2023/12/08 10:17:22;;;;;;;47.27;22.53;;;2.00;91.80;;;;;;6196135;23;20462;-82
2023/12/08 10:19:49;;;;;;;42.10;22.17;;;2.00;91.80;;;;;;6195363;23;20380;-81
2023/12/08 10:22:15;;;;;;;42.10;22.47;;;2.00;91.90;;;;;;6245153;23;20016;-81
2023/12/08 10:24:41;;;;;;;45.90;24.67;;;2.10;91.90;;;;;;6219648;23;20028;-83
2023/12/08 10:27:09;;;;;;;47.93;24.77;;;2.10;91.90;;;;;;6219576;23;20067;-82
2023/12/08 10:29:34;;;;;;;48.80;24.33;;;2.00;91.90;;;;;;6191770;23;20114;-82
2023/12/08 10:32:02;;;;;;;50.30;24.53;;;2.10;91.90;;;;;;6191686;23;20162;-81
2023/12/08 10:34:28;;;;;;;46.23;23.27;;;2.10;92.00;;;;;;6192000;23;20019;-81
2023/12/08 10:36:54;;;;;;;45.37;23.80;;;2.10;92.00;;;;;;6242162;23;20012;-81
2023/12/08 10:39:20;;;;;;;53.97;23.73;;;2.10;92.00;;;;;;6192262;23;20418;-80
2023/12/08 10:41:52;;;;;;;49.70;25.43;;;2.10;92.00;;;;;;6191850;23;20035;-80
2023/12/08 10:44:21;;;;;;;52.23;25.37;;;2.10;92.20;;;;;;6217382;23;20448;-80
2023/12/08 10:46:48;;;;;;;53.67;25.20;;;2.10;92.00;;;;;;6216352;23;20022;-80
2023/12/08 10:49:19;;;;;;;58.33;24.87;;;2.10;92.20;;;;;;6217740;23;20445;-82
2023/12/08 10:51:48;;;;;;;53.80;24.67;;;2.10;92.10;;;;;;6221318;23;20016;-80
2023/12/08 10:54:18;;;;;;;50.80;25.80;;;2.10;92.10;;;;;;6247794;23;20023;-81
2023/12/08 10:56:48;;;;;;;48.60;24.13;;;2.10;92.10;;;;;;6198293;23;20026;-80
2023/12/08 10:59:18;;;;;;;57.00;26.53;;;2.10;92.10;;;;;;6227814;23;20040;-81
2023/12/08 11:01:46;;;;;;;51.57;25.30;;;2.10;92.20;;;;;;6245335;23;20008;-81
2023/12/08 11:04:15;;;;;;;51.80;24.50;;;2.10;92.20;;;;;;6219402;23;20012;-81
2023/12/08 11:06:54;;;;;;;51.67;24.87;;;2.10;92.20;;;;;;6219086;23;20008;-81
2023/12/08 11:09:21;;;;;;;52.03;25.27;;;2.20;92.20;;;;;;6194182;23;20441;-81
2023/12/08 11:11:58;;;;;;;50.60;24.47;;;2.20;92.20;;;;;;6218596;23;20012;-81
2023/12/08 11:14:47;;;;;;;57.60;25.80;;;2.20;92.30;;;;;;6193780;23;20014;-80
2023/12/08 11:17:21;;;;;;;50.77;25.07;;;2.20;92.30;;;;;;6194565;23;20115;-81
2023/12/08 11:19:50;;;;;;;52.03;24.10;;;2.20;92.50;;;;;;6244982;23;20012;-81
2023/12/08 11:22:16;;;;;;;50.43;24.47;;;2.30;92.30;;;;;;6220257;23;20087;-81
2023/12/08 11:24:42;;;;;;;50.80;24.70;;;2.30;92.30;;;;;;6245160;23;20027;-80
2023/12/08 11:28:02;;;;;;;51.73;24.17;;;2.30;92.30;;;;;;6219978;23;20094;-81
2023/12/08 11:30:48;;;;;;;48.40;24.00;;;2.30;92.30;;;;;;6159107;23;20013;-81
2023/12/08 11:33:19;;;;;;;50.10;24.33;;;2.30;92.30;;;;;;6158888;23;20035;-81
2023/12/08 11:35:51;;;;;;;45.67;24.03;;;2.30;92.40;;;;;;6206171;23;20448;-81
2023/12/08 11:38:30;;;;;;;54.47;25.77;;;2.30;92.30;;;;;;6196235;23;20035;-81
2023/12/08 11:40:56;;;;;;;51.13;23.97;;;2.30;92.40;;;;;;6220125;23;20394;-82
2023/12/08 11:43:23;;;;;;;49.33;25.10;;;2.30;92.40;;;;;;6194681;23;20035;-82
2023/12/08 11:45:50;;;;;;;53.03;25.47;;;2.40;92.40;;;;;;6195368;23;20015;-81
2023/12/08 11:48:15;;;;;;;52.10;25.17;;;2.30;92.30;;;;;;6195627;23;20020;-81
2023/12/08 11:50:41;;;;;;;51.53;25.03;;;2.40;92.40;;;;;;6220732;23;20476;-81
2023/12/08 11:53:07;;;;;;;51.97;25.00;;;2.40;92.40;;;;;;6220795;23;20024;-81
2023/12/08 11:55:32;;;;;;;57.10;26.20;;;2.40;92.40;;;;;;6222080;23;20015;-81
2023/12/08 11:58:04;;;;;;;45.23;24.03;;;2.40;92.40;;;;;;6221656;23;20388;-81
2023/12/08 12:00:32;;;;;;;54.90;25.53;;;2.40;92.40;;;;;;6220603;23;20426;-81
2023/12/08 12:02:59;;;;;;;54.37;26.13;;;2.40;92.40;;;;;;6196730;23;20083;-81
2023/12/08 12:05:26;;;;;;;57.67;25.70;;;2.40;92.40;;;;;;6224076;23;20062;-81
2023/12/08 12:07:53;;;;;;;55.47;26.07;;;2.40;92.40;;;;;;6224791;23;20054;-82
2023/12/08 12:10:34;;;;;;;58.20;26.27;;;2.40;92.50;;;;;;6222443;23;20068;-83
2023/12/08 12:13:13;;;;;;;57.97;25.20;;;2.40;92.50;;;;;;6223140;23;20038;-81
2023/12/08 12:15:41;;;;;;;61.73;28.67;;;2.40;92.50;;;;;;6224338;23;20012;-81
2023/12/08 12:18:07;;;;;;;63.33;27.50;;;2.50;92.50;;;;;;6205860;23;20088;-82
2023/12/08 12:20:40;;;;;;;65.77;29.37;;;2.50;92.50;;;;;;6211987;23;20008;-82
2023/12/08 12:23:06;;;;;;;61.43;26.60;;;2.50;92.60;;;;;;6216019;23;20012;-82
2023/12/08 12:25:38;;;;;;;68.83;28.53;;;2.50;92.60;;;;;;6238603;23;20067;-82
2023/12/08 12:28:04;;;;;;;67.00;29.57;;;2.60;92.80;;;;;;6233738;23;20115;-82
2023/12/08 12:30:31;;;;;;;66.60;29.40;;;2.60;92.60;;;;;;6222666;23;20394;-82
2023/12/08 12:32:59;;;;;;;65.50;27.80;;;2.60;92.60;;;;;;6218760;23;20023;-82
2023/12/08 12:35:25;;;;;;;71.28;29.80;;;2.60;92.70;;;;;;6219787;23;20345;-82
2023/12/08 12:37:53;;;;;;;71.75;29.73;;;2.70;92.70;;;;;;6218956;23;20004;-82
2023/12/08 12:40:19;;;;;;;73.50;30.00;;;2.70;92.70;;;;;;6219001;23;20336;-82
2023/12/08 12:42:48;;;;;;;67.37;30.17;;;2.70;92.70;;;;;;6218817;23;20008;-83
2023/12/08 12:45:28;;;;;;;70.53;30.08;;;2.80;92.80;;;;;;6219850;23;20412;-82
2023/12/08 12:48:05;;;;;;;77.45;30.65;;;2.80;92.80;;;;;;6221083;23;20020;-82
2023/12/08 12:50:43;;;;;;;74.87;30.53;;;2.80;92.80;;;;;;6221155;23;20023;-82